Time;durP1;ratioP1;P1;durP2;ratioP2;P2;SDS_P1;SDS_P2;PMS_P1;PMS_P2;Temp;Humidity;BMP_temperature;BMP_pressure;BME280_temperature;BME280_humidity;BME280_pressure;Samples;Min_cycle;Max_cycle;Signal;HPM_P1;HPM_P2
2022/09/01 00:00:52;;;;;;;8.45;4.80;;;;;;;10.74;100.00;101944.16;5029429;28;20030;-76
2022/09/01 00:03:22;;;;;;;9.13;5.00;;;;;;;10.67;100.00;101932.28;4997475;28;20422;-77
2022/09/01 00:05:53;;;;;;;11.15;5.70;;;;;;;10.59;100.00;101934.03;4998366;28;20035;-77
2022/09/01 00:08:19;;;;;;;7.85;4.78;;;;;;;10.49;100.00;101934.88;5028204;28;20110;-78
2022/09/01 00:10:45;;;;;;;8.18;4.63;;;;;;;10.51;100.00;101921.31;5010453;28;20033;-77
2022/09/01 00:13:11;;;;;;;8.75;4.72;;;;;;;10.67;100.00;101931.44;5063323;28;20514;-76
2022/09/01 00:15:37;;;;;;;10.73;4.70;;;;;;;10.63;100.00;101924.66;4997382;28;20303;-76
2022/09/01 00:18:03;;;;;;;8.77;4.65;;;;;;;10.54;100.00;101937.16;4997463;28;20033;-75
2022/09/01 00:20:29;;;;;;;9.77;5.35;;;;;;;10.45;100.00;101917.38;4998864;28;20029;-76
2022/09/01 00:22:55;;;;;;;6.25;3.63;;;;;;;10.47;100.00;101915.34;5029644;28;20048;-75
2022/09/01 00:25:20;;;;;;;7.25;3.40;;;;;;;10.34;100.00;101904.06;5027875;28;20025;-75
2022/09/01 00:27:48;;;;;;;8.63;4.60;;;;;;;10.47;100.00;101919.88;5029800;28;20459;-76
2022/09/01 00:30:13;;;;;;;9.48;4.95;;;;;;;10.40;100.00;101916.09;5028756;28;20109;-75
2022/09/01 00:32:39;;;;;;;12.70;5.78;;;;;;;10.46;100.00;101924.44;4997147;28;20037;-76
2022/09/01 00:35:07;;;;;;;9.93;4.82;;;;;;;10.34;100.00;101912.97;4997351;28;20435;-75
2022/09/01 00:37:33;;;;;;;8.20;4.68;;;;;;;10.23;100.00;101923.88;5029266;28;20033;-76
2022/09/01 00:39:58;;;;;;;10.13;4.78;;;;;;;10.11;100.00;101925.91;5012176;28;20471;-76
2022/09/01 00:42:24;;;;;;;9.20;5.05;;;;;;;10.04;100.00;101916.72;5013144;28;20033;-76
2022/09/01 00:44:50;;;;;;;10.57;4.88;;;;;;;9.88;100.00;101909.25;4997125;28;20358;-75
2022/09/01 00:47:16;;;;;;;6.93;4.53;;;;;;;9.74;100.00;101898.06;5011796;28;20383;-76
2022/09/01 00:49:46;;;;;;;10.70;5.65;;;;;;;9.75;100.00;101911.38;5028949;28;20037;-76
2022/09/01 00:52:20;;;;;;;11.00;4.90;;;;;;;9.74;100.00;101912.38;5029235;28;20040;-75
2022/09/01 00:54:47;;;;;;;;;;;;;;;9.66;100.00;101914.94;5008396;28;20029;-76
2022/09/01 00:57:14;;;;;;;9.20;4.82;;;;;;;9.46;100.00;101903.31;4996521;28;19921;-76
2022/09/01 00:59:45;;;;;;;8.75;4.68;;;;;;;9.46;100.00;101914.91;5013100;28;20083;-76
2022/09/01 01:02:11;;;;;;;10.43;5.22;;;;;;;9.36;100.00;101894.41;5012268;28;20061;-76
2022/09/01 01:04:37;;;;;;;9.40;5.07;;;;;;;9.49;100.00;101905.72;5026966;28;20084;-76
2022/09/01 01:07:03;;;;;;;11.23;5.50;;;;;;;9.49;100.00;101900.34;4993788;28;20033;-76
2022/09/01 01:09:35;;;;;;;9.80;5.32;;;;;;;9.36;100.00;101887.19;5012515;28;20044;-76
2022/09/01 01:12:03;;;;;;;7.90;5.30;;;;;;;9.39;100.00;101896.81;5029248;28;20029;-76
2022/09/01 01:14:30;;;;;;;9.45;5.55;;;;;;;9.43;100.00;101901.75;5004244;28;20284;-76
2022/09/01 01:16:58;;;;;;;12.90;6.30;;;;;;;9.51;100.00;101910.97;5026626;28;20451;-76
2022/09/01 01:25:07;;;;;;;10.60;5.18;;;;;;;9.42;100.00;101894.72;5028362;28;20128;-76
2022/09/01 01:27:34;;;;;;;10.65;5.07;;;;;;;9.35;100.00;101885.50;5028126;28;20116;-76
2022/09/01 01:30:08;;;;;;;10.00;5.22;;;;;;;9.37;100.00;101898.81;4996707;28;20414;-75
2022/09/01 01:32:34;;;;;;;11.15;5.60;;;;;;;9.22;100.00;101891.13;5012333;28;20086;-76
2022/09/01 01:35:04;;;;;;;11.80;5.60;;;;;;;9.18;100.00;101887.06;5027805;28;20029;-76
2022/09/01 01:37:34;;;;;;;12.88;5.95;;;;;;;9.22;100.00;101896.50;5030620;28;20120;-77
2022/09/01 01:40:00;;;;;;;11.43;5.88;;;;;;;9.12;100.00;101876.84;5031716;28;20382;-76
2022/09/01 01:42:28;;;;;;;12.25;6.00;;;;;;;9.18;100.00;101889.75;4999642;28;20091;-76
2022/09/01 01:44:54;;;;;;;11.75;5.80;;;;;;;9.15;100.00;101881.09;5032500;28;20053;-75
2022/09/01 01:47:20;;;;;;;10.77;5.35;;;;;;;9.12;100.00;101873.34;5031164;28;20043;-76
2022/09/01 01:49:46;;;;;;;15.95;5.55;;;;;;;9.05;100.00;101864.13;5016350;28;20036;-76
2022/09/01 01:52:16;;;;;;;12.73;6.15;;;;;;;9.06;100.00;101877.41;5014430;28;20112;-75
2022/09/01 01:54:44;;;;;;;17.02;6.47;;;;;;;8.90;100.00;101874.44;5016446;28;20125;-75
2022/09/01 01:57:14;;;;;;;12.10;5.78;;;;;;;8.69;100.00;101872.66;5015343;28;20032;-76
2022/09/01 01:59:39;;;;;;;11.93;5.88;;;;;;;8.58;100.00;101875.47;5032026;28;20103;-75
2022/09/01 02:02:08;;;;;;;12.20;6.07;;;;;;;8.48;100.00;101869.22;5015020;28;20499;-76
2022/09/01 02:04:35;;;;;;;12.60;5.90;;;;;;;8.35;100.00;101866.72;4999646;28;20123;-76
2022/09/01 02:07:00;;;;;;;11.50;6.13;;;;;;;8.18;100.00;101860.16;4995058;28;20049;-75
2022/09/01 02:09:26;;;;;;;14.15;5.90;;;;;;;8.20;100.00;101879.59;5011249;28;20423;-75
2022/09/01 02:11:56;;;;;;;9.13;5.80;;;;;;;8.03;100.00;101848.09;5015555;28;20037;-75
2022/09/01 02:14:21;;;;;;;11.60;6.65;;;;;;;8.13;100.00;101881.13;5015299;28;20037;-75
2022/09/01 02:16:48;;;;;;;9.10;6.35;;;;;;;8.12;100.00;101869.59;5028177;28;20059;-75
2022/09/01 02:19:14;;;;;;;16.10;6.78;;;;;;;8.07;100.00;101873.59;5031786;28;20507;-75
2022/09/01 02:21:43;;;;;;;12.27;6.05;;;;;;;8.01;100.00;101863.44;5022946;28;20582;-75
2022/09/01 02:24:10;;;;;;;11.30;6.20;;;;;;;8.09;100.00;101871.66;4999277;28;20033;-75
2022/09/01 02:26:41;;;;;;;12.77;6.20;;;;;;;7.96;100.00;101849.59;4997533;28;20476;-75
2022/09/01 02:29:19;;;;;;;12.18;6.18;;;;;;;8.09;100.00;101877.00;5015594;28;20068;-75
2022/09/01 02:31:48;;;;;;;11.27;5.85;;;;;;;8.05;100.00;101880.94;5015391;28;20038;-75
2022/09/01 02:34:15;;;;;;;12.57;6.47;;;;;;;7.97;100.00;101870.06;4999640;28;20103;-76
2022/09/01 02:36:46;;;;;;;11.30;6.10;;;;;;;7.96;100.00;101865.66;5030747;28;20124;-76
2022/09/01 02:39:19;;;;;;;10.57;5.95;;;;;;;7.90;100.00;101859.84;5015897;28;20077;-75
2022/09/01 02:41:46;;;;;;;12.25;6.78;;;;;;;7.85;100.00;101850.50;4994976;28;20350;-76
2022/09/01 02:44:13;;;;;;;14.30;6.32;;;;;;;7.75;100.00;101865.66;5014122;28;20501;-76
2022/09/01 02:46:44;;;;;;;12.27;6.07;;;;;;;7.51;100.00;101849.84;5012620;28;20565;-76
2022/09/01 02:49:14;;;;;;;9.50;5.30;;;;;;;7.51;100.00;101849.84;4997195;28;20040;-75
2022/09/01 02:51:45;;;;;;;12.00;5.70;;;;;;;7.60;100.00;101862.47;5015172;28;20061;-75
2022/09/01 02:54:15;;;;;;;11.30;5.35;;;;;;;7.65;100.00;101860.25;5031697;28;20030;-75
2022/09/01 02:56:41;;;;;;;12.57;6.85;;;;;;;7.65;100.00;101852.22;4995461;28;21647;-74
2022/09/01 02:59:11;;;;;;;13.95;6.68;;;;;;;7.65;100.00;101850.38;4998244;28;20026;-77
2022/09/01 03:01:38;;;;;;;17.27;8.13;;;;;;;7.51;100.00;101847.16;5015269;28;20030;-77
2022/09/01 03:04:08;;;;;;;10.82;6.18;;;;;;;7.44;100.00;101852.19;5031374;28;20108;-77
2022/09/01 03:06:35;;;;;;;9.70;5.78;;;;;;;7.41;100.00;101847.97;5014244;28;20121;-77
2022/09/01 03:09:02;;;;;;;13.75;6.20;;;;;;;7.32;100.00;101827.31;4995080;28;20037;-78
2022/09/01 03:11:30;;;;;;;14.07;5.55;;;;;;;7.35;100.00;101837.75;5014300;28;20071;-78
2022/09/01 03:13:56;;;;;;;12.68;6.50;;;;;;;7.31;100.00;101844.34;5030737;28;20548;-78
2022/09/01 03:16:22;;;;;;;13.07;7.20;;;;;;;7.08;100.00;101815.97;4994239;28;20098;-78
2022/09/01 03:18:49;;;;;;;11.77;6.13;;;;;;;7.19;100.00;101827.47;5013659;28;20041;-77
2022/09/01 03:21:15;;;;;;;13.07;6.40;;;;;;;7.30;100.00;101833.75;5030758;28;20025;-77
2022/09/01 03:23:45;;;;;;;16.77;6.68;;;;;;;7.37;100.00;101841.16;5030901;28;20029;-78
2022/09/01 03:26:11;;;;;;;10.88;5.75;;;;;;;7.48;100.00;101834.91;5012746;28;20036;-77
2022/09/01 03:28:37;;;;;;;12.25;5.95;;;;;;;7.56;100.00;101840.44;5014222;28;20041;-77
2022/09/01 03:31:03;;;;;;;11.80;6.03;;;;;;;7.54;100.00;101820.13;5014121;28;20120;-77
2022/09/01 03:33:29;;;;;;;12.48;6.35;;;;;;;7.63;100.00;101825.56;5029400;28;20033;-77
2022/09/01 03:35:55;;;;;;;12.68;6.57;;;;;;;7.59;100.00;101816.09;5012057;28;20026;-77
2022/09/01 03:38:23;;;;;;;12.70;6.10;;;;;;;7.66;100.00;101819.94;4996625;28;20514;-76
2022/09/01 03:40:53;;;;;;;14.38;6.25;;;;;;;7.59;100.00;101812.56;5014473;28;20040;-76
2022/09/01 03:43:26;;;;;;;14.13;6.43;;;;;;;7.66;100.00;101825.31;4998079;28;20026;-77
2022/09/01 03:45:54;;;;;;;13.65;6.22;;;;;;;7.55;100.00;101793.25;5028275;28;20067;-78
2022/09/01 03:48:20;;;;;;;14.60;6.22;;;;;;;7.74;100.00;101827.34;4997749;28;20068;-78
2022/09/01 03:50:46;;;;;;;14.43;6.30;;;;;;;7.79;100.00;101833.16;4997793;28;20044;-77
2022/09/01 03:53:14;;;;;;;13.00;6.03;;;;;;;7.80;100.00;101818.75;4997470;28;20033;-77
2022/09/01 03:55:40;;;;;;;12.40;5.78;;;;;;;7.78;100.00;101809.16;4995653;28;20032;-77
2022/09/01 03:58:08;;;;;;;14.60;6.65;;;;;;;7.88;100.00;101818.09;5029254;28;20034;-78
2022/09/01 04:00:37;;;;;;;13.23;6.40;;;;;;;7.97;100.00;101822.69;5012635;28;20029;-77
2022/09/01 04:03:06;;;;;;;12.13;6.10;;;;;;;8.01;100.00;101801.81;5029818;28;20037;-77
2022/09/01 04:05:33;;;;;;;15.80;7.30;;;;;;;8.25;100.00;101813.06;5027989;28;20033;-78
2022/09/01 04:08:02;;;;;;;17.55;7.70;;;;;;;8.40;100.00;101810.91;5013356;28;20029;-78
2022/09/01 04:10:31;;;;;;;20.42;7.72;;;;;;;8.43;100.00;101785.69;5029956;28;20025;-78
2022/09/01 04:12:58;;;;;;;29.67;10.95;;;;;;;8.94;100.00;101811.47;5030003;28;20025;-78
2022/09/01 04:15:25;;;;;;;26.75;8.73;;;;;;;9.23;100.00;101801.59;4995174;28;20475;-77
2022/09/01 04:18:09;;;;;;;20.00;8.10;;;;;;;9.36;100.00;101803.97;4995320;28;20112;-77
2022/09/01 04:20:46;;;;;;;26.42;11.75;;;;;;;9.54;100.00;101798.75;4998218;28;20034;-77
2022/09/01 04:23:24;;;;;;;30.48;11.43;;;;;;;9.74;100.00;101806.75;5012590;28;20108;-77
2022/09/01 04:25:52;;;;;;;33.45;11.35;;;;;;;9.80;100.00;101798.13;5011044;28;20069;-78
2022/09/01 04:28:21;;;;;;;36.05;12.05;;;;;;;9.97;100.00;101796.53;5013065;28;20470;-78
2022/09/01 04:30:55;;;;;;;37.17;12.25;;;;;;;10.02;100.00;101794.25;5027887;28;20075;-78
2022/09/01 04:33:24;;;;;;;20.10;10.70;;;;;;;10.01;100.00;101777.28;5027799;28;20029;-78
2022/09/01 04:35:51;;;;;;;29.55;10.75;;;;;;;10.16;100.00;101795.59;5028684;28;20029;-77
2022/09/01 04:38:16;;;;;;;34.00;11.57;;;;;;;10.11;100.00;101780.78;5012926;28;20029;-77
2022/09/01 04:40:42;;;;;;;30.45;11.23;;;;;;;10.04;100.00;101776.97;5029445;28;20382;-76
2022/09/01 04:43:08;;;;;;;36.67;10.80;;;;;;;10.02;100.00;101781.66;5010317;28;20037;-78
2022/09/01 04:45:35;;;;;;;24.23;8.10;;;;;;;9.92;100.00;101770.09;5011207;28;20060;-77
2022/09/01 04:48:02;;;;;;;26.95;10.32;;;;;;;9.90;100.00;101772.09;5029283;28;20021;-77
2022/09/01 04:50:29;;;;;;;20.80;8.18;;;;;;;9.93;100.00;101779.03;5028130;28;20091;-78
2022/09/01 04:53:01;;;;;;;32.35;11.10;;;;;;;9.89;100.00;101781.97;5013294;28;20367;-76
2022/09/01 04:55:29;;;;;;;30.98;10.70;;;;;;;9.63;100.00;101749.56;5028941;28;20487;-77
2022/09/01 04:57:56;;;;;;;27.25;9.50;;;;;;;9.79;100.00;101769.56;4993390;28;20056;-76
2022/09/01 05:00:24;;;;;;;21.63;8.30;;;;;;;9.86;100.00;101778.75;5011728;28;20490;-76
2022/09/01 05:03:01;;;;;;;33.15;11.05;;;;;;;9.82;100.00;101774.66;5013247;28;20380;-78
2022/09/01 05:05:27;;;;;;;29.92;9.68;;;;;;;9.80;100.00;101771.28;5013078;28;20124;-78
2022/09/01 05:07:54;;;;;;;35.67;11.30;;;;;;;9.74;100.00;101761.09;4991684;28;20124;-77
2022/09/01 05:10:21;;;;;;;27.45;9.38;;;;;;;9.91;100.00;101781.84;5026145;28;20532;-77
2022/09/01 05:12:48;;;;;;;33.25;10.68;;;;;;;9.92;100.00;101775.47;5015463;28;20064;-76
2022/09/01 05:15:16;;;;;;;26.65;8.90;;;;;;;9.88;100.00;101771.38;5016405;28;20475;-77
2022/09/01 05:17:42;;;;;;;39.42;11.48;;;;;;;9.91;100.00;101771.09;5007241;28;20021;-77
2022/09/01 05:20:10;;;;;;;40.33;12.23;;;;;;;9.94;100.00;101768.09;5033014;28;20030;-77
2022/09/01 05:22:39;;;;;;;39.42;12.68;;;;;;;9.72;100.00;101722.81;5014986;28;20080;-78
2022/09/01 05:25:11;;;;;;;36.50;12.10;;;;;;;9.86;100.00;101735.75;5017403;28;20080;-76
2022/09/01 05:27:48;;;;;;;41.13;12.80;;;;;;;10.10;100.00;101773.69;5024353;28;20498;-77
2022/09/01 05:30:16;;;;;;;40.95;12.82;;;;;;;10.11;100.00;101777.25;5012994;28;20034;-76
2022/09/01 05:32:47;;;;;;;30.75;11.10;;;;;;;10.07;100.00;101778.53;4996672;28;20120;-76
2022/09/01 05:35:13;;;;;;;42.90;13.07;;;;;;;9.85;100.00;101728.72;5000540;28;20040;-77
2022/09/01 05:37:40;;;;;;;31.90;11.98;;;;;;;10.15;100.00;101769.72;5032606;28;20025;-76
2022/09/01 05:40:14;;;;;;;27.80;10.02;;;;;;;10.13;100.00;101768.06;5008308;28;20041;-76
2022/09/01 05:42:42;;;;;;;44.05;12.05;;;;;;;10.18;100.00;101778.34;5017299;28;20025;-76
2022/09/01 05:45:10;;;;;;;32.38;10.98;;;;;;;10.19;100.00;101771.09;5001788;28;20491;-76
2022/09/01 05:47:38;;;;;;;40.22;14.90;;;;;;;10.22;100.00;101760.94;5014709;28;20041;-77
2022/09/01 05:50:07;;;;;;;38.63;11.68;;;;;;;10.26;100.00;101766.84;5014637;28;20025;-76
2022/09/01 05:52:36;;;;;;;47.00;13.10;;;;;;;10.36;100.00;101774.91;5000411;28;20275;-75
2022/09/01 05:55:02;;;;;;;31.83;11.30;;;;;;;10.41;100.00;101778.81;5015448;28;20045;-76
2022/09/01 05:57:27;;;;;;;41.92;12.25;;;;;;;10.32;100.00;101763.59;5015992;28;20057;-77
2022/09/01 05:59:53;;;;;;;37.97;10.82;;;;;;;10.43;100.00;101768.78;4999648;28;20506;-77
2022/09/01 06:02:22;;;;;;;32.40;10.57;;;;;;;10.50;100.00;101771.69;5032034;28;20411;-76
2022/09/01 06:04:48;;;;;;;39.83;10.02;;;;;;;10.53;100.00;101772.25;5015980;28;20116;-76
2022/09/01 06:07:16;;;;;;;29.38;9.45;;;;;;;10.55;100.00;101767.56;4997812;28;20117;-76
2022/09/01 06:09:47;;;;;;;38.72;11.38;;;;;;;10.59;100.00;101767.28;4999667;28;20534;-76
2022/09/01 06:12:17;;;;;;;42.53;11.45;;;;;;;10.65;100.00;101775.56;4999560;28;20127;-76
2022/09/01 06:14:44;;;;;;;51.20;11.70;;;;;;;10.67;100.00;101770.06;5016262;28;20030;-77
2022/09/01 06:17:10;;;;;;;42.72;11.98;;;;;;;10.67;100.00;101765.50;4999327;28;20040;-76
2022/09/01 06:19:38;;;;;;;33.72;10.63;;;;;;;10.78;100.00;101781.44;4999367;28;20450;-78
2022/09/01 06:22:04;;;;;;;21.92;7.30;;;;;;;10.74;100.00;101760.34;5014626;28;20028;-77
2022/09/01 06:24:30;;;;;;;36.35;11.57;;;;;;;10.83;100.00;101758.63;5029906;28;20021;-76
2022/09/01 06:26:56;;;;;;;52.22;12.40;;;;;;;10.93;100.00;101773.69;5015109;28;20411;-77
2022/09/01 06:29:21;;;;;;;20.40;10.02;;;;;;;10.98;100.00;101768.69;4996103;28;20034;-75
2022/09/01 06:31:51;;;;;;;35.47;10.43;;;;;;;10.98;100.00;101773.19;5031270;28;20029;-77
2022/09/01 06:34:18;;;;;;;41.47;11.70;;;;;;;11.03;100.00;101773.59;5015882;28;20057;-76
2022/09/01 06:36:46;;;;;;;43.30;10.80;;;;;;;10.86;100.00;101753.75;5009706;28;20128;-76
2022/09/01 06:39:18;;;;;;;44.58;11.73;;;;;;;10.92;100.00;101773.81;4995711;28;20028;-77
2022/09/01 06:41:51;;;;;;;36.38;11.48;;;;;;;11.08;100.00;101783.91;5031665;28;20103;-76
2022/09/01 06:44:26;;;;;;;41.70;14.75;;;;;;;11.10;100.00;101776.53;4999632;28;20033;-76
2022/09/01 06:46:52;;;;;;;45.08;13.05;;;;;;;11.05;100.00;101770.75;5014245;28;20221;-77
2022/09/01 06:49:20;;;;;;;50.80;13.77;;;;;;;11.03;100.00;101767.38;5031418;28;20067;-77
2022/09/01 06:51:47;;;;;;;50.08;13.88;;;;;;;11.10;100.00;101787.28;5031438;28;20032;-76
2022/09/01 06:54:13;;;;;;;42.88;13.00;;;;;;;11.12;100.00;101788.00;5031385;28;20124;-77
2022/09/01 06:56:42;;;;;;;39.67;13.07;;;;;;;11.11;100.00;101792.50;4998293;28;20088;-77
2022/09/01 06:59:08;;;;;;;50.08;14.48;;;;;;;11.09;100.00;101786.44;4998245;28;20124;-76
2022/09/01 07:01:36;;;;;;;53.03;14.57;;;;;;;11.29;100.00;101797.03;4995356;28;20045;-77
2022/09/01 07:04:02;;;;;;;35.67;12.05;;;;;;;11.32;100.00;101781.41;5012966;28;20037;-76
2022/09/01 07:06:28;;;;;;;43.22;14.50;;;;;;;11.59;100.00;101796.63;5014328;28;20120;-77
2022/09/01 07:08:56;;;;;;;45.30;14.90;;;;;;;11.80;100.00;101793.59;5030862;28;20026;-76
2022/09/01 07:11:26;;;;;;;42.58;13.13;;;;;;;12.03;100.00;101795.75;5029867;28;20065;-76
2022/09/01 07:13:54;;;;;;;39.63;13.52;;;;;;;12.18;100.00;101793.31;5031190;28;20464;-75
2022/09/01 07:16:25;;;;;;;33.92;10.57;;;;;;;12.20;100.00;101794.84;5010565;28;20463;-76
2022/09/01 07:18:57;;;;;;;28.92;11.40;;;;;;;12.35;100.00;101799.63;5013524;28;20041;-77
2022/09/01 07:21:24;;;;;;;40.70;14.13;;;;;;;12.35;100.00;101796.91;5014163;28;20026;-76
2022/09/01 07:23:50;;;;;;;38.78;12.05;;;;;;;12.32;100.00;101785.44;5012835;28;20041;-76
2022/09/01 07:26:19;;;;;;;38.75;11.88;;;;;;;12.56;100.00;101766.81;4997225;28;20395;-77
2022/09/01 07:28:46;;;;;;;37.80;13.98;;;;;;;13.04;100.00;101798.47;5030276;28;20029;-77
2022/09/01 07:31:19;;;;;;;34.28;12.00;;;;;;;13.13;100.00;101781.28;5017629;28;20041;-77
2022/09/01 07:33:49;;;;;;;33.17;12.38;;;;;;;13.58;100.00;101798.88;5026845;28;20463;-78
2022/09/01 07:36:23;;;;;;;44.60;15.00;;;;;;;14.06;100.00;101801.66;5015085;28;20041;-78
2022/09/01 07:38:54;;;;;;;35.33;13.60;;;;;;;14.13;100.00;101802.66;4997937;28;20040;-77
2022/09/01 07:41:25;;;;;;;27.42;10.95;;;;;;;13.73;100.00;101787.34;5030460;28;20036;-77
2022/09/01 07:43:52;;;;;;;33.20;9.55;;;;;;;13.47;100.00;101798.34;5023302;28;20030;-75
2022/09/01 07:46:18;;;;;;;31.77;11.45;;;;;;;13.32;100.00;101799.03;5013006;28;20034;-77
2022/09/01 07:48:47;;;;;;;28.58;11.63;;;;;;;13.17;100.00;101804.22;5027952;28;20397;-75
2022/09/01 07:51:16;;;;;;;28.02;10.77;;;;;;;12.90;100.00;101810.75;5029955;28;20041;-75
2022/09/01 07:53:57;;;;;;;28.73;11.57;;;;;;;12.76;100.00;101804.16;4998106;28;20128;-77
2022/09/01 07:56:25;;;;;;;35.20;12.55;;;;;;;12.90;100.00;101799.13;5001502;28;20077;-76
2022/09/01 07:59:01;;;;;;;30.45;12.60;;;;;;;13.09;100.00;101790.72;5031207;28;20022;-76
2022/09/01 08:01:27;;;;;;;34.95;12.93;;;;;;;13.13;100.00;101800.19;5012969;28;20038;-76
2022/09/01 08:03:58;;;;;;;30.45;12.63;;;;;;;13.22;100.00;101802.88;4993747;28;20033;-76
2022/09/01 08:06:26;;;;;;;28.48;11.57;;;;;;;13.21;100.00;101793.94;4996093;28;20087;-76
2022/09/01 08:08:53;;;;;;;29.73;11.48;;;;;;;13.21;100.00;101802.03;5029609;28;20052;-77
2022/09/01 08:11:23;;;;;;;35.60;14.18;;;;;;;13.37;100.00;101801.22;4996771;28;20079;-78
2022/09/01 08:13:50;;;;;;;30.58;11.02;;;;;;;13.50;100.00;101811.53;5013479;28;20026;-76
2022/09/01 08:16:16;;;;;;;29.25;11.73;;;;;;;13.52;100.00;101796.84;4996923;28;20489;-76
2022/09/01 08:18:43;;;;;;;29.27;11.43;;;;;;;13.74;100.00;101802.56;4996876;28;20212;-76
2022/09/01 08:21:11;;;;;;;24.83;10.32;;;;;;;13.97;100.00;101797.25;5025220;28;20227;-75
2022/09/01 08:23:38;;;;;;;27.63;10.70;;;;;;;14.78;100.00;101788.00;5011232;28;20049;-76
2022/09/01 08:26:10;;;;;;;29.67;10.85;;;;;;;15.86;100.00;101803.25;5003190;28;20438;-76
2022/09/01 08:28:36;;;;;;;39.10;13.23;;;;;;;15.85;100.00;101798.88;5026568;28;20506;-76
2022/09/01 08:31:09;;;;;;;39.33;15.02;;;;;;;15.80;100.00;101804.84;5025265;28;20033;-76
2022/09/01 08:33:39;;;;;;;36.03;15.07;;;;;;;15.94;100.00;101802.34;4991860;28;20443;-76
2022/09/01 08:36:11;;;;;;;37.05;15.57;;;;;;;16.18;99.35;101769.50;5029220;28;20021;-75
2022/09/01 08:38:37;;;;;;;39.80;15.40;;;;;;;16.98;92.57;101797.63;5010309;28;20073;-76
2022/09/01 08:41:05;;;;;;;27.40;12.63;;;;;;;17.71;89.60;101790.13;5014008;28;20489;-74
2022/09/01 08:43:53;;;;;;;35.45;13.32;;;;;;;17.52;89.25;101796.28;4996684;28;20529;-77
2022/09/01 08:46:24;;;;;;;34.85;13.45;;;;;;;17.34;89.25;101772.28;5027366;28;20116;-75
2022/09/01 08:49:05;;;;;;;35.58;16.85;;;;;;;19.24;84.85;101793.59;5033521;28;20375;-77
2022/09/01 08:51:59;;;;;;;37.58;16.73;;;;;;;22.83;64.27;101783.16;5000836;28;20029;-75
2022/09/01 08:54:39;;;;;;;37.75;15.13;;;;;;;24.35;59.05;101800.06;5033588;28;20026;-75
2022/09/01 08:57:08;;;;;;;46.60;18.77;;;;;;;25.30;55.14;101787.63;4997506;28;20099;-75
2022/09/01 08:59:33;;;;;;;45.95;19.90;;;;;;;26.31;51.48;101776.44;5003070;28;20101;-75
2022/09/01 09:02:19;;;;;;;41.05;20.60;;;;;;;27.46;45.74;101789.25;5000635;28;20116;-75
2022/09/01 09:04:50;;;;;;;46.83;19.85;;;;;;;28.12;45.47;101785.28;4999115;28;20026;-75
2022/09/01 09:07:40;;;;;;;41.15;19.95;;;;;;;28.72;42.04;101783.88;5033009;28;20029;-75
2022/09/01 09:10:39;;;;;;;37.17;18.70;;;;;;;28.24;40.80;101786.72;5027453;28;20243;-74
2022/09/01 09:13:33;;;;;;;53.92;25.45;;;;;;;26.19;44.47;101761.94;5019252;28;20037;-75
2022/09/01 09:16:37;;;;;;;52.63;23.77;;;;;;;26.20;44.32;101760.03;5030538;28;20463;-74
2022/09/01 09:19:19;;;;;;;54.78;25.33;;;;;;;25.36;45.15;101783.03;4990264;28;20129;-74
2022/09/01 09:21:47;;;;;;;40.25;21.23;;;;;;;24.63;48.26;101777.25;5009476;28;20504;-74
2022/09/01 09:24:25;;;;;;;43.45;21.95;;;;;;;25.54;45.67;101776.44;4999845;28;20041;-76
2022/09/01 09:26:52;;;;;;;40.92;19.52;;;;;;;26.82;43.16;101773.47;5026967;28;20036;-75
2022/09/01 09:29:21;;;;;;;51.17;25.00;;;;;;;27.73;42.15;101774.50;5005564;28;20029;-77
2022/09/01 09:31:47;;;;;;;45.53;23.73;;;;;;;28.46;39.55;101772.72;4999373;28;20033;-75
2022/09/01 09:34:31;;;;;;;41.70;22.42;;;;;;;28.95;40.23;101768.72;5032958;28;20498;-75
2022/09/01 09:37:20;;;;;;;26.88;15.45;;;;;;;28.97;37.01;101773.94;5032581;28;20061;-75
2022/09/01 09:40:08;;;;;;;25.10;15.70;;;;;;;28.40;38.16;101771.03;5012479;28;20049;-75
2022/09/01 09:42:34;;;;;;;29.30;15.25;;;;;;;28.49;38.48;101763.06;5029672;28;20034;-75
2022/09/01 09:45:00;;;;;;;34.97;16.83;;;;;;;28.79;38.76;101773.38;5015473;28;20066;-74
2022/09/01 09:47:41;;;;;;;31.63;19.52;;;;;;;29.39;37.57;101759.03;5011521;28;20038;-74
2022/09/01 09:50:36;;;;;;;28.95;17.27;;;;;;;28.40;38.32;101761.91;5013012;28;20048;-75
2022/09/01 09:53:15;;;;;;;25.05;14.05;;;;;;;27.18;40.13;101752.59;5013067;28;20483;-74
2022/09/01 09:55:59;;;;;;;22.83;14.68;;;;;;;26.30;43.71;101758.25;5014110;28;20037;-74
2022/09/01 09:58:34;;;;;;;15.70;8.45;;;;;;;25.16;44.35;101747.72;5015675;28;20033;-75
2022/09/01 10:01:15;;;;;;;15.75;10.52;;;;;;;23.73;48.34;101751.16;5032454;28;20048;-75
2022/09/01 10:03:49;;;;;;;22.48;12.50;;;;;;;22.47;53.79;101751.19;5031542;28;20022;-75
2022/09/01 10:06:33;;;;;;;28.98;14.88;;;;;;;22.18;54.47;101752.78;4999683;28;20029;-74
2022/09/01 10:09:20;;;;;;;25.27;14.82;;;;;;;22.95;53.56;101739.31;5032206;28;20471;-74
2022/09/01 10:11:51;;;;;;;24.08;14.77;;;;;;;24.70;48.76;101755.13;5004900;28;20395;-76
2022/09/01 10:14:21;;;;;;;19.23;12.32;;;;;;;26.85;44.60;101744.50;4998945;28;20120;-74
2022/09/01 10:16:51;;;;;;;16.92;8.85;;;;;;;28.24;41.10;101749.97;5041236;28;20025;-75
2022/09/01 10:19:18;;;;;;;10.80;5.80;;;;;;;29.45;38.97;101741.28;5031678;28;20036;-75
2022/09/01 10:21:45;;;;;;;10.00;4.97;;;;;;;30.19;35.16;101728.63;5014669;28;20039;-74
2022/09/01 10:24:20;;;;;;;10.77;5.38;;;;;;;29.91;36.36;101738.47;5029676;28;20539;-74
2022/09/01 10:26:50;;;;;;;7.80;4.65;;;;;;;30.13;34.92;101746.41;5007732;28;20068;-74
2022/09/01 10:29:25;;;;;;;11.35;4.68;;;;;;;29.46;36.78;101737.44;5012430;28;20045;-75
2022/09/01 10:31:53;;;;;;;13.68;6.10;;;;;;;28.88;38.11;101726.63;5025025;28;20040;-75
2022/09/01 10:34:20;;;;;;;9.65;5.05;;;;;;;29.82;36.71;101729.03;5031279;28;20372;-74
2022/09/01 10:36:47;;;;;;;7.05;4.38;;;;;;;30.34;34.41;101736.91;4998796;28;20064;-75
2022/09/01 10:39:17;;;;;;;10.65;5.40;;;;;;;30.09;34.76;101735.06;5031012;28;20502;-74
2022/09/01 10:41:49;;;;;;;9.25;4.72;;;;;;;29.39;36.54;101734.94;5014252;28;20517;-75
2022/09/01 10:44:37;;;;;;;12.13;5.07;;;;;;;30.28;34.03;101731.69;5015741;28;20025;-75
2022/09/01 10:47:23;;;;;;;7.93;5.03;;;;;;;30.17;35.27;101722.56;5009867;28;20102;-75
2022/09/01 10:49:49;;;;;;;7.30;4.20;;;;;;;30.42;35.02;101729.94;5026988;28;20045;-75
2022/09/01 10:52:39;;;;;;;6.45;3.75;;;;;;;30.79;32.93;101721.06;5011379;28;20095;-75
2022/09/01 10:55:40;;;;;;;6.60;3.38;;;;;;;31.29;32.12;101720.97;5014912;28;20048;-76
2022/09/01 10:58:09;;;;;;;;;;;;;;;31.54;30.73;101719.91;5013417;28;20037;-74
2022/09/01 11:00:34;;;;;;;6.82;3.42;;;;;;;31.25;32.25;101717.97;5013916;28;19909;-74
2022/09/01 11:03:13;;;;;;;5.93;3.40;;;;;;;30.99;33.49;101709.03;5030524;28;20037;-77
2022/09/01 11:06:06;;;;;;;5.78;3.60;;;;;;;31.64;32.91;101703.13;5031288;28;20499;-75
2022/09/01 11:08:32;;;;;;;6.82;4.25;;;;;;;32.02;30.93;101702.41;5003287;28;20041;-75
2022/09/01 11:11:28;;;;;;;8.55;3.97;;;;;;;32.24;31.33;101701.88;5012161;28;20040;-75
2022/09/01 11:13:57;;;;;;;5.82;3.80;;;;;;;31.93;31.48;101693.91;5014224;28;20041;-74
2022/09/01 11:16:30;;;;;;;7.80;4.22;;;;;;;31.93;30.64;101693.91;5030961;28;20064;-74
2022/09/01 11:19:23;;;;;;;6.63;3.45;;;;;;;31.80;30.40;101692.66;5014748;28;20029;-75
2022/09/01 11:22:08;;;;;;;3.90;3.50;;;;;;;31.73;29.49;101690.25;5030956;28;20245;-75
2022/09/01 11:24:37;;;;;;;8.15;4.20;;;;;;;31.59;31.30;101691.22;5014598;28;20037;-75
2022/09/01 11:27:44;;;;;;;7.32;3.60;;;;;;;31.78;28.87;101689.31;5014311;28;20030;-74
2022/09/01 11:30:16;;;;;;;6.32;4.07;;;;;;;31.90;30.25;101689.75;5035209;28;20583;-75
2022/09/01 11:32:48;;;;;;;4.18;3.10;;;;;;;32.12;29.33;101680.03;5022639;28;20028;-75